TDCF/DCF METAR and TAF weather

Enter ICAO airport designator
Station Type Date Time Source
TDCF METAR 2021/08/01 17:00 UTC NOAA

TDCF 011700Z 32002KT 9999 SCT018 30/25 Q1016


Station Type Date Time Source
TDCF Decoded METAR 2021/08/01 17:00 UTC NOAA

Canefield Airport, Dominica (TDCF) 15-32N 061-24W 5M
Aug 01, 2021 - 01:00 PM EDT / 2021.08.01 1700 UTC
Wind: from the NW (320 degrees) at 2 MPH (2 KT):0
Visibility: greater than 7 mile(s):0
Sky conditions: partly cloudy
Temperature: 86 F (30 C)
Heat index: 96.8 F (36.0 C):1
Dew Point: 77 F (25 C)
Relative Humidity: 74%
Pressure (altimeter): 30.00 in. Hg (1016 hPa)
ob: TDCF 011700Z 32002KT 9999 SCT018 30/25 Q1016
cycle: 17

Station Type Date Time Source
TDCF TAF 2012/05/01 18:15 UTC NOAA

TAF TDCF 011600Z 0118/0218 110010KT 9999 SCT018 BKN030
TEMPO 0118/0206 6000 SHRA BKN014 BKN070

Example: see airport list